Terminal Aerodrome Forecast
Issued by NWS Amarillo, TX

Home | Current Version | Previous Version | Text Only | Print | Product List | Glossary On
Versions: 1 2 3 4 5 6 7 8 9 10 11 12 13 14 15 16 17 18 19 20 21
000
FTUS44 KAMA 281700 RRA
TAFDHT
TAF
KDHT 281750Z 2818/2918 03014KT P6SM FEW120 SCT250
     FM282000 08013KT P6SM SCT012 SCT250
     FM290200 11011KT P6SM SCT012 BKN250 PROB30 2903/2908 -TSRA
      BKN090CB
     FM290900 03009KT P6SM SCT100 OVC250=

USA.gov is the U.S. government's official web portal to all federal, state and local government web resources and services.